sensor_id;sensor_type;location;lat;lon;timestamp;P1;durP1;ratioP1;P2;durP2;ratioP2
65315;SDS011;51920;53.952;10.292;2023-11-19T00:00:08;15.20;;;7.60;;
65315;SDS011;51920;53.952;10.292;2023-11-19T00:02:39;15.20;;;7.22;;
65315;SDS011;51920;53.952;10.292;2023-11-19T00:05:05;14.95;;;7.18;;
65315;SDS011;51920;53.952;10.292;2023-11-19T00:07:35;14.65;;;7.28;;
65315;SDS011;51920;53.952;10.292;2023-11-19T00:10:02;15.68;;;7.38;;
65315;SDS011;51920;53.952;10.292;2023-11-19T00:12:37;16.50;;;7.60;;
65315;SDS011;51920;53.952;10.292;2023-11-19T00:15:05;13.52;;;7.28;;
65315;SDS011;51920;53.952;10.292;2023-11-19T00:17:33;13.48;;;7.05;;
65315;SDS011;51920;53.952;10.292;2023-11-19T00:19:59;14.00;;;7.20;;
65315;SDS011;51920;53.952;10.292;2023-11-19T00:22:26;14.20;;;7.15;;
65315;SDS011;51920;53.952;10.292;2023-11-19T00:24:52;14.03;;;6.80;;
65315;SDS011;51920;53.952;10.292;2023-11-19T00:27:19;12.77;;;7.13;;
65315;SDS011;51920;53.952;10.292;2023-11-19T00:29:45;13.82;;;6.60;;
65315;SDS011;51920;53.952;10.292;2023-11-19T00:32:12;12.52;;;6.75;;
65315;SDS011;51920;53.952;10.292;2023-11-19T00:34:39;12.40;;;6.75;;
65315;SDS011;51920;53.952;10.292;2023-11-19T00:37:05;13.37;;;6.57;;
65315;SDS011;51920;53.952;10.292;2023-11-19T00:39:33;12.40;;;6.18;;
65315;SDS011;51920;53.952;10.292;2023-11-19T00:41:59;12.18;;;6.65;;
65315;SDS011;51920;53.952;10.292;2023-11-19T00:44:26;12.77;;;6.43;;
65315;SDS011;51920;53.952;10.292;2023-11-19T00:46:52;12.32;;;6.45;;
65315;SDS011;51920;53.952;10.292;2023-11-19T00:49:19;12.47;;;6.17;;
65315;SDS011;51920;53.952;10.292;2023-11-19T00:51:46;11.13;;;6.00;;
65315;SDS011;51920;53.952;10.292;2023-11-19T00:54:13;12.02;;;6.22;;
65315;SDS011;51920;53.952;10.292;2023-11-19T00:56:39;12.32;;;6.28;;
65315;SDS011;51920;53.952;10.292;2023-11-19T00:59:06;10.68;;;6.03;;
65315;SDS011;51920;53.952;10.292;2023-11-19T01:01:32;11.43;;;5.70;;
65315;SDS011;51920;53.952;10.292;2023-11-19T01:03:59;10.85;;;5.85;;
65315;SDS011;51920;53.952;10.292;2023-11-19T01:06:26;11.10;;;6.00;;
65315;SDS011;51920;53.952;10.292;2023-11-19T01:08:54;11.40;;;5.97;;
65315;SDS011;51920;53.952;10.292;2023-11-19T01:11:23;11.90;;;6.25;;
65315;SDS011;51920;53.952;10.292;2023-11-19T01:13:51;9.83;;;5.50;;
65315;SDS011;51920;53.952;10.292;2023-11-19T01:16:18;9.85;;;5.70;;
65315;SDS011;51920;53.952;10.292;2023-11-19T01:18:46;9.57;;;5.78;;
65315;SDS011;51920;53.952;10.292;2023-11-19T01:21:13;9.45;;;5.10;;
65315;SDS011;51920;53.952;10.292;2023-11-19T01:23:43;9.93;;;5.50;;
65315;SDS011;51920;53.952;10.292;2023-11-19T01:26:12;9.60;;;5.30;;
65315;SDS011;51920;53.952;10.292;2023-11-19T01:28:39;10.48;;;5.30;;
65315;SDS011;51920;53.952;10.292;2023-11-19T01:31:17;9.25;;;5.40;;
65315;SDS011;51920;53.952;10.292;2023-11-19T01:33:43;9.80;;;5.20;;
65315;SDS011;51920;53.952;10.292;2023-11-19T01:36:12;8.57;;;4.85;;
65315;SDS011;51920;53.952;10.292;2023-11-19T01:38:39;9.20;;;5.20;;
65315;SDS011;51920;53.952;10.292;2023-11-19T01:41:06;8.07;;;4.43;;
65315;SDS011;51920;53.952;10.292;2023-11-19T01:43:33;8.20;;;4.82;;
65315;SDS011;51920;53.952;10.292;2023-11-19T01:46:02;7.60;;;4.65;;
65315;SDS011;51920;53.952;10.292;2023-11-19T01:48:35;7.63;;;4.75;;
65315;SDS011;51920;53.952;10.292;2023-11-19T01:51:07;7.40;;;3.90;;
65315;SDS011;51920;53.952;10.292;2023-11-19T01:53:35;6.43;;;3.90;;
65315;SDS011;51920;53.952;10.292;2023-11-19T01:56:04;7.53;;;4.30;;
65315;SDS011;51920;53.952;10.292;2023-11-19T01:58:35;6.35;;;4.10;;
65315;SDS011;51920;53.952;10.292;2023-11-19T02:01:03;6.20;;;4.10;;
65315;SDS011;51920;53.952;10.292;2023-11-19T02:03:31;6.40;;;4.00;;
65315;SDS011;51920;53.952;10.292;2023-11-19T02:06:02;7.07;;;4.68;;
65315;SDS011;51920;53.952;10.292;2023-11-19T02:08:29;6.70;;;4.40;;
65315;SDS011;51920;53.952;10.292;2023-11-19T02:10:56;6.28;;;3.83;;
65315;SDS011;51920;53.952;10.292;2023-11-19T02:13:26;7.22;;;4.00;;
65315;SDS011;51920;53.952;10.292;2023-11-19T02:15:55;5.80;;;3.73;;
65315;SDS011;51920;53.952;10.292;2023-11-19T02:18:23;5.90;;;3.50;;
65315;SDS011;51920;53.952;10.292;2023-11-19T02:20:57;4.10;;;2.83;;
65315;SDS011;51920;53.952;10.292;2023-11-19T02:23:28;4.97;;;3.28;;
65315;SDS011;51920;53.952;10.292;2023-11-19T02:28:40;5.67;;;3.17;;
65315;SDS011;51920;53.952;10.292;2023-11-19T02:31:08;4.70;;;3.45;;
65315;SDS011;51920;53.952;10.292;2023-11-19T02:33:38;4.63;;;3.20;;
65315;SDS011;51920;53.952;10.292;2023-11-19T02:36:05;4.60;;;3.45;;
65315;SDS011;51920;53.952;10.292;2023-11-19T02:38:33;5.07;;;3.70;;
65315;SDS011;51920;53.952;10.292;2023-11-19T02:41:04;4.40;;;3.03;;
65315;SDS011;51920;53.952;10.292;2023-11-19T02:43:32;4.28;;;2.90;;
65315;SDS011;51920;53.952;10.292;2023-11-19T02:46:04;4.70;;;2.88;;
65315;SDS011;51920;53.952;10.292;2023-11-19T02:48:36;4.38;;;2.80;;
65315;SDS011;51920;53.952;10.292;2023-11-19T02:51:05;5.30;;;3.05;;
65315;SDS011;51920;53.952;10.292;2023-11-19T02:53:36;4.00;;;2.80;;
65315;SDS011;51920;53.952;10.292;2023-11-19T02:56:06;3.67;;;2.63;;
65315;SDS011;51920;53.952;10.292;2023-11-19T02:58:46;3.63;;;2.70;;
65315;SDS011;51920;53.952;10.292;2023-11-19T03:01:13;2.97;;;2.20;;
65315;SDS011;51920;53.952;10.292;2023-11-19T03:03:49;3.47;;;2.53;;
65315;SDS011;51920;53.952;10.292;2023-11-19T03:06:21;3.63;;;2.50;;
65315;SDS011;51920;53.952;10.292;2023-11-19T03:08:48;3.50;;;2.50;;
65315;SDS011;51920;53.952;10.292;2023-11-19T03:11:15;3.45;;;2.80;;
65315;SDS011;51920;53.952;10.292;2023-11-19T03:13:42;3.03;;;2.60;;
65315;SDS011;51920;53.952;10.292;2023-11-19T03:16:08;2.70;;;2.30;;
65315;SDS011;51920;53.952;10.292;2023-11-19T03:18:36;3.17;;;2.37;;
65315;SDS011;51920;53.952;10.292;2023-11-19T03:21:02;3.22;;;2.30;;
65315;SDS011;51920;53.952;10.292;2023-11-19T03:23:29;2.80;;;2.30;;
65315;SDS011;51920;53.952;10.292;2023-11-19T03:25:57;2.88;;;2.22;;
65315;SDS011;51920;53.952;10.292;2023-11-19T03:28:23;2.90;;;2.42;;
65315;SDS011;51920;53.952;10.292;2023-11-19T03:30:50;2.60;;;2.17;;
65315;SDS011;51920;53.952;10.292;2023-11-19T03:33:16;2.58;;;2.22;;
65315;SDS011;51920;53.952;10.292;2023-11-19T03:35:43;3.30;;;2.53;;
65315;SDS011;51920;53.952;10.292;2023-11-19T03:38:10;3.03;;;2.35;;
65315;SDS011;51920;53.952;10.292;2023-11-19T03:40:36;2.53;;;2.15;;
65315;SDS011;51920;53.952;10.292;2023-11-19T03:43:04;2.67;;;2.17;;
65315;SDS011;51920;53.952;10.292;2023-11-19T03:45:31;2.88;;;2.03;;
65315;SDS011;51920;53.952;10.292;2023-11-19T03:47:58;3.25;;;2.28;;
65315;SDS011;51920;53.952;10.292;2023-11-19T03:50:24;2.42;;;2.22;;
65315;SDS011;51920;53.952;10.292;2023-11-19T03:52:51;2.90;;;2.45;;
65315;SDS011;51920;53.952;10.292;2023-11-19T03:55:18;2.53;;;1.97;;
65315;SDS011;51920;53.952;10.292;2023-11-19T03:57:45;2.17;;;1.95;;
65315;SDS011;51920;53.952;10.292;2023-11-19T04:00:13;2.50;;;2.25;;
65315;SDS011;51920;53.952;10.292;2023-11-19T04:02:40;2.83;;;1.95;;
65315;SDS011;51920;53.952;10.292;2023-11-19T04:05:07;2.60;;;2.20;;
65315;SDS011;51920;53.952;10.292;2023-11-19T04:07:34;1.90;;;1.70;;
65315;SDS011;51920;53.952;10.292;2023-11-19T04:10:00;2.30;;;1.90;;
65315;SDS011;51920;53.952;10.292;2023-11-19T04:12:29;3.30;;;2.20;;
65315;SDS011;51920;53.952;10.292;2023-11-19T04:14:55;2.50;;;1.80;;
65315;SDS011;51920;53.952;10.292;2023-11-19T04:17:26;2.50;;;2.22;;
65315;SDS011;51920;53.952;10.292;2023-11-19T04:19:54;2.57;;;2.20;;
65315;SDS011;51920;53.952;10.292;2023-11-19T04:22:20;2.00;;;1.80;;
65315;SDS011;51920;53.952;10.292;2023-11-19T04:24:47;2.30;;;2.03;;
65315;SDS011;51920;53.952;10.292;2023-11-19T04:27:14;2.50;;;2.10;;
65315;SDS011;51920;53.952;10.292;2023-11-19T04:29:40;2.50;;;2.20;;
65315;SDS011;51920;53.952;10.292;2023-11-19T04:32:07;2.00;;;1.80;;
65315;SDS011;51920;53.952;10.292;2023-11-19T04:34:34;2.22;;;1.88;;
65315;SDS011;51920;53.952;10.292;2023-11-19T04:37:00;2.70;;;2.20;;
65315;SDS011;51920;53.952;10.292;2023-11-19T04:39:37;2.20;;;2.00;;
65315;SDS011;51920;53.952;10.292;2023-11-19T04:42:04;2.53;;;2.22;;
65315;SDS011;51920;53.952;10.292;2023-11-19T04:44:32;2.43;;;2.03;;
65315;SDS011;51920;53.952;10.292;2023-11-19T04:46:59;3.72;;;2.30;;
65315;SDS011;51920;53.952;10.292;2023-11-19T04:49:25;2.92;;;2.47;;
65315;SDS011;51920;53.952;10.292;2023-11-19T04:51:53;2.83;;;2.25;;
65315;SDS011;51920;53.952;10.292;2023-11-19T04:54:20;3.58;;;2.67;;
65315;SDS011;51920;53.952;10.292;2023-11-19T04:56:46;4.30;;;2.67;;
65315;SDS011;51920;53.952;10.292;2023-11-19T04:59:13;3.58;;;2.67;;
65315;SDS011;51920;53.952;10.292;2023-11-19T05:01:40;3.80;;;2.88;;
65315;SDS011;51920;53.952;10.292;2023-11-19T05:04:07;3.83;;;2.70;;
65315;SDS011;51920;53.952;10.292;2023-11-19T05:06:34;3.75;;;3.15;;
65315;SDS011;51920;53.952;10.292;2023-11-19T05:09:01;4.70;;;2.90;;
65315;SDS011;51920;53.952;10.292;2023-11-19T05:11:31;3.90;;;2.90;;
65315;SDS011;51920;53.952;10.292;2023-11-19T05:13:58;3.92;;;3.15;;
65315;SDS011;51920;53.952;10.292;2023-11-19T05:16:24;3.83;;;2.88;;
65315;SDS011;51920;53.952;10.292;2023-11-19T05:18:51;4.72;;;3.30;;
65315;SDS011;51920;53.952;10.292;2023-11-19T05:21:18;4.53;;;3.30;;
65315;SDS011;51920;53.952;10.292;2023-11-19T05:23:44;4.50;;;3.20;;
65315;SDS011;51920;53.952;10.292;2023-11-19T05:26:16;5.95;;;3.75;;
65315;SDS011;51920;53.952;10.292;2023-11-19T05:28:44;4.97;;;3.20;;
65315;SDS011;51920;53.952;10.292;2023-11-19T05:31:11;5.38;;;3.63;;
65315;SDS011;51920;53.952;10.292;2023-11-19T05:33:38;6.00;;;3.50;;
65315;SDS011;51920;53.952;10.292;2023-11-19T05:36:05;5.13;;;3.08;;
65315;SDS011;51920;53.952;10.292;2023-11-19T05:38:32;5.78;;;3.92;;
65315;SDS011;51920;53.952;10.292;2023-11-19T05:40:59;6.50;;;3.85;;
65315;SDS011;51920;53.952;10.292;2023-11-19T05:43:27;6.38;;;3.67;;
65315;SDS011;51920;53.952;10.292;2023-11-19T05:45:53;6.63;;;3.60;;
65315;SDS011;51920;53.952;10.292;2023-11-19T05:48:20;6.93;;;3.72;;
65315;SDS011;51920;53.952;10.292;2023-11-19T05:50:46;7.43;;;4.05;;
65315;SDS011;51920;53.952;10.292;2023-11-19T05:53:15;7.88;;;3.75;;
65315;SDS011;51920;53.952;10.292;2023-11-19T05:55:42;8.73;;;4.47;;
65315;SDS011;51920;53.952;10.292;2023-11-19T05:58:23;7.63;;;3.93;;
65315;SDS011;51920;53.952;10.292;2023-11-19T06:00:55;10.25;;;4.93;;
65315;SDS011;51920;53.952;10.292;2023-11-19T06:03:22;9.75;;;4.90;;
65315;SDS011;51920;53.952;10.292;2023-11-19T06:05:50;13.05;;;5.15;;
65315;SDS011;51920;53.952;10.292;2023-11-19T06:08:16;11.43;;;5.07;;
65315;SDS011;51920;53.952;10.292;2023-11-19T06:10:43;11.90;;;5.17;;
65315;SDS011;51920;53.952;10.292;2023-11-19T06:13:13;13.35;;;5.53;;
65315;SDS011;51920;53.952;10.292;2023-11-19T06:15:42;14.90;;;5.65;;
65315;SDS011;51920;53.952;10.292;2023-11-19T06:18:09;12.82;;;5.40;;
65315;SDS011;51920;53.952;10.292;2023-11-19T06:20:37;14.00;;;6.15;;
65315;SDS011;51920;53.952;10.292;2023-11-19T06:23:07;17.03;;;6.53;;
65315;SDS011;51920;53.952;10.292;2023-11-19T06:25:36;19.48;;;6.82;;
65315;SDS011;51920;53.952;10.292;2023-11-19T06:28:03;20.25;;;7.78;;
65315;SDS011;51920;53.952;10.292;2023-11-19T06:30:30;20.70;;;7.35;;
65315;SDS011;51920;53.952;10.292;2023-11-19T06:32:58;22.48;;;8.38;;
65315;SDS011;51920;53.952;10.292;2023-11-19T06:35:26;22.53;;;7.77;;
65315;SDS011;51920;53.952;10.292;2023-11-19T06:37:52;25.00;;;8.43;;
65315;SDS011;51920;53.952;10.292;2023-11-19T06:40:19;30.30;;;9.45;;
65315;SDS011;51920;53.952;10.292;2023-11-19T06:42:46;24.90;;;8.45;;
65315;SDS011;51920;53.952;10.292;2023-11-19T06:45:13;31.48;;;10.07;;
65315;SDS011;51920;53.952;10.292;2023-11-19T06:47:41;27.23;;;9.30;;
65315;SDS011;51920;53.952;10.292;2023-11-19T06:50:07;33.88;;;10.07;;
65315;SDS011;51920;53.952;10.292;2023-11-19T06:52:35;29.27;;;10.68;;
65315;SDS011;51920;53.952;10.292;2023-11-19T06:55:03;32.58;;;10.85;;
65315;SDS011;51920;53.952;10.292;2023-11-19T06:57:35;29.70;;;9.93;;
65315;SDS011;51920;53.952;10.292;2023-11-19T07:00:01;26.93;;;9.60;;
65315;SDS011;51920;53.952;10.292;2023-11-19T07:02:29;31.70;;;10.65;;
65315;SDS011;51920;53.952;10.292;2023-11-19T07:04:55;31.55;;;10.40;;
65315;SDS011;51920;53.952;10.292;2023-11-19T07:07:22;36.92;;;10.65;;
65315;SDS011;51920;53.952;10.292;2023-11-19T07:09:48;36.67;;;11.38;;
65315;SDS011;51920;53.952;10.292;2023-11-19T07:12:16;34.53;;;10.90;;
65315;SDS011;51920;53.952;10.292;2023-11-19T07:14:42;37.83;;;10.73;;
65315;SDS011;51920;53.952;10.292;2023-11-19T07:17:09;36.95;;;11.02;;
65315;SDS011;51920;53.952;10.292;2023-11-19T07:19:36;38.30;;;10.48;;
65315;SDS011;51920;53.952;10.292;2023-11-19T07:22:04;36.88;;;10.75;;
65315;SDS011;51920;53.952;10.292;2023-11-19T07:24:30;33.03;;;10.40;;
65315;SDS011;51920;53.952;10.292;2023-11-19T07:26:57;38.25;;;10.85;;
65315;SDS011;51920;53.952;10.292;2023-11-19T07:29:24;32.35;;;10.43;;
65315;SDS011;51920;53.952;10.292;2023-11-19T07:31:53;34.25;;;10.48;;
65315;SDS011;51920;53.952;10.292;2023-11-19T07:34:20;36.03;;;9.82;;
65315;SDS011;51920;53.952;10.292;2023-11-19T07:36:47;32.13;;;9.93;;
65315;SDS011;51920;53.952;10.292;2023-11-19T07:39:14;33.92;;;10.13;;
65315;SDS011;51920;53.952;10.292;2023-11-19T07:41:40;31.83;;;10.35;;
65315;SDS011;51920;53.952;10.292;2023-11-19T07:44:07;30.48;;;9.85;;
65315;SDS011;51920;53.952;10.292;2023-11-19T07:46:34;24.73;;;7.63;;
65315;SDS011;51920;53.952;10.292;2023-11-19T07:49:00;25.67;;;7.90;;
65315;SDS011;51920;53.952;10.292;2023-11-19T07:51:29;21.05;;;6.93;;
65315;SDS011;51920;53.952;10.292;2023-11-19T07:53:55;22.08;;;6.47;;
65315;SDS011;51920;53.952;10.292;2023-11-19T07:56:22;23.92;;;6.25;;
65315;SDS011;51920;53.952;10.292;2023-11-19T07:58:49;22.42;;;5.82;;
65315;SDS011;51920;53.952;10.292;2023-11-19T08:01:15;23.23;;;5.87;;
65315;SDS011;51920;53.952;10.292;2023-11-19T08:03:42;26.95;;;6.70;;
65315;SDS011;51920;53.952;10.292;2023-11-19T08:06:23;18.17;;;5.70;;
65315;SDS011;51920;53.952;10.292;2023-11-19T08:08:49;19.73;;;5.00;;
65315;SDS011;51920;53.952;10.292;2023-11-19T08:11:16;20.15;;;5.22;;
65315;SDS011;51920;53.952;10.292;2023-11-19T08:13:42;23.53;;;4.63;;
65315;SDS011;51920;53.952;10.292;2023-11-19T08:16:09;26.50;;;5.40;;
65315;SDS011;51920;53.952;10.292;2023-11-19T08:18:36;19.95;;;5.00;;
65315;SDS011;51920;53.952;10.292;2023-11-19T08:21:02;18.48;;;5.10;;
65315;SDS011;51920;53.952;10.292;2023-11-19T08:23:31;25.40;;;5.43;;
65315;SDS011;51920;53.952;10.292;2023-11-19T08:25:57;27.10;;;4.97;;
65315;SDS011;51920;53.952;10.292;2023-11-19T08:28:24;26.02;;;5.13;;
65315;SDS011;51920;53.952;10.292;2023-11-19T08:30:50;22.05;;;4.18;;
65315;SDS011;51920;53.952;10.292;2023-11-19T08:33:17;23.75;;;4.70;;
65315;SDS011;51920;53.952;10.292;2023-11-19T08:35:43;22.77;;;4.78;;
65315;SDS011;51920;53.952;10.292;2023-11-19T08:38:11;21.90;;;5.20;;
65315;SDS011;51920;53.952;10.292;2023-11-19T08:40:37;23.23;;;4.88;;
65315;SDS011;51920;53.952;10.292;2023-11-19T08:43:05;27.20;;;4.93;;
65315;SDS011;51920;53.952;10.292;2023-11-19T08:45:32;27.45;;;4.85;;
65315;SDS011;51920;53.952;10.292;2023-11-19T08:47:59;29.77;;;5.32;;
65315;SDS011;51920;53.952;10.292;2023-11-19T08:50:26;25.67;;;5.00;;
65315;SDS011;51920;53.952;10.292;2023-11-19T08:52:52;26.55;;;4.53;;
65315;SDS011;51920;53.952;10.292;2023-11-19T08:55:19;27.08;;;5.05;;
65315;SDS011;51920;53.952;10.292;2023-11-19T08:57:45;25.77;;;4.97;;
65315;SDS011;51920;53.952;10.292;2023-11-19T09:00:12;29.35;;;5.40;;
65315;SDS011;51920;53.952;10.292;2023-11-19T09:02:40;29.27;;;5.27;;
65315;SDS011;51920;53.952;10.292;2023-11-19T09:05:07;30.10;;;5.22;;
65315;SDS011;51920;53.952;10.292;2023-11-19T09:07:34;30.20;;;6.28;;
65315;SDS011;51920;53.952;10.292;2023-11-19T09:10:00;22.83;;;6.80;;
65315;SDS011;51920;53.952;10.292;2023-11-19T09:12:28;26.98;;;5.57;;
65315;SDS011;51920;53.952;10.292;2023-11-19T09:14:55;30.33;;;5.57;;
65315;SDS011;51920;53.952;10.292;2023-11-19T09:17:21;24.33;;;5.20;;
65315;SDS011;51920;53.952;10.292;2023-11-19T09:19:48;20.05;;;4.55;;
65315;SDS011;51920;53.952;10.292;2023-11-19T09:22:15;20.80;;;3.83;;
65315;SDS011;51920;53.952;10.292;2023-11-19T09:24:41;21.48;;;4.50;;
65315;SDS011;51920;53.952;10.292;2023-11-19T09:27:10;18.83;;;3.43;;
65315;SDS011;51920;53.952;10.292;2023-11-19T09:29:37;19.15;;;3.70;;
65315;SDS011;51920;53.952;10.292;2023-11-19T09:32:04;17.08;;;3.67;;
65315;SDS011;51920;53.952;10.292;2023-11-19T09:34:32;15.30;;;4.00;;
65315;SDS011;51920;53.952;10.292;2023-11-19T09:36:58;20.23;;;4.00;;
65315;SDS011;51920;53.952;10.292;2023-11-19T09:39:25;16.40;;;3.70;;
65315;SDS011;51920;53.952;10.292;2023-11-19T09:41:52;14.63;;;3.63;;
65315;SDS011;51920;53.952;10.292;2023-11-19T09:44:19;17.58;;;4.13;;
65315;SDS011;51920;53.952;10.292;2023-11-19T09:46:45;16.83;;;3.38;;
65315;SDS011;51920;53.952;10.292;2023-11-19T09:49:13;17.42;;;3.65;;
65315;SDS011;51920;53.952;10.292;2023-11-19T09:51:42;17.67;;;3.30;;
65315;SDS011;51920;53.952;10.292;2023-11-19T09:54:09;22.02;;;4.60;;
65315;SDS011;51920;53.952;10.292;2023-11-19T09:56:36;17.13;;;3.97;;
65315;SDS011;51920;53.952;10.292;2023-11-19T09:59:05;21.98;;;4.05;;
65315;SDS011;51920;53.952;10.292;2023-11-19T10:01:31;19.92;;;4.00;;
65315;SDS011;51920;53.952;10.292;2023-11-19T10:03:59;24.13;;;4.13;;
65315;SDS011;51920;53.952;10.292;2023-11-19T10:06:28;21.10;;;4.13;;
65315;SDS011;51920;53.952;10.292;2023-11-19T10:08:55;25.70;;;4.28;;
65315;SDS011;51920;53.952;10.292;2023-11-19T10:11:22;20.70;;;3.67;;
65315;SDS011;51920;53.952;10.292;2023-11-19T10:13:48;22.45;;;3.88;;
65315;SDS011;51920;53.952;10.292;2023-11-19T10:16:15;22.20;;;4.40;;
65315;SDS011;51920;53.952;10.292;2023-11-19T10:18:47;22.15;;;4.18;;
65315;SDS011;51920;53.952;10.292;2023-11-19T10:21:19;20.02;;;4.00;;
65315;SDS011;51920;53.952;10.292;2023-11-19T10:23:50;14.10;;;3.20;;
65315;SDS011;51920;53.952;10.292;2023-11-19T10:26:22;21.48;;;3.60;;
65315;SDS011;51920;53.952;10.292;2023-11-19T10:28:49;23.60;;;3.93;;
65315;SDS011;51920;53.952;10.292;2023-11-19T10:31:17;26.38;;;3.90;;
65315;SDS011;51920;53.952;10.292;2023-11-19T10:33:45;18.88;;;4.00;;
65315;SDS011;51920;53.952;10.292;2023-11-19T10:36:12;21.65;;;3.45;;
65315;SDS011;51920;53.952;10.292;2023-11-19T10:38:39;15.02;;;3.60;;
65315;SDS011;51920;53.952;10.292;2023-11-19T10:41:07;17.00;;;3.50;;
65315;SDS011;51920;53.952;10.292;2023-11-19T10:43:43;21.02;;;3.80;;
65315;SDS011;51920;53.952;10.292;2023-11-19T10:46:14;29.25;;;5.07;;
65315;SDS011;51920;53.952;10.292;2023-11-19T10:48:40;18.40;;;3.70;;
65315;SDS011;51920;53.952;10.292;2023-11-19T10:51:07;19.52;;;3.65;;
65315;SDS011;51920;53.952;10.292;2023-11-19T10:53:38;19.83;;;4.03;;
65315;SDS011;51920;53.952;10.292;2023-11-19T10:56:05;14.65;;;3.63;;
65315;SDS011;51920;53.952;10.292;2023-11-19T10:58:37;16.77;;;3.63;;
65315;SDS011;51920;53.952;10.292;2023-11-19T11:01:19;21.73;;;4.30;;
65315;SDS011;51920;53.952;10.292;2023-11-19T11:03:50;14.95;;;2.88;;
65315;SDS011;51920;53.952;10.292;2023-11-19T11:06:18;18.63;;;3.27;;
65315;SDS011;51920;53.952;10.292;2023-11-19T11:08:46;15.38;;;3.25;;
65315;SDS011;51920;53.952;10.292;2023-11-19T11:11:14;17.50;;;3.53;;
65315;SDS011;51920;53.952;10.292;2023-11-19T11:13:43;15.85;;;3.55;;
65315;SDS011;51920;53.952;10.292;2023-11-19T11:16:11;18.63;;;3.08;;
65315;SDS011;51920;53.952;10.292;2023-11-19T11:18:38;14.70;;;3.20;;
65315;SDS011;51920;53.952;10.292;2023-11-19T11:23:56;17.85;;;3.50;;
65315;SDS011;51920;53.952;10.292;2023-11-19T11:26:32;18.65;;;3.53;;
65315;SDS011;51920;53.952;10.292;2023-11-19T11:34:41;15.77;;;4.00;;
65315;SDS011;51920;53.952;10.292;2023-11-19T11:39:50;17.02;;;3.22;;
65315;SDS011;51920;53.952;10.292;2023-11-19T11:50:09;16.15;;;3.53;;
65315;SDS011;51920;53.952;10.292;2023-11-19T11:55:27;14.02;;;2.60;;
65315;SDS011;51920;53.952;10.292;2023-11-19T11:57:55;19.23;;;3.43;;
65315;SDS011;51920;53.952;10.292;2023-11-19T12:00:22;17.58;;;3.55;;
65315;SDS011;51920;53.952;10.292;2023-11-19T12:02:56;19.38;;;3.45;;
65315;SDS011;51920;53.952;10.292;2023-11-19T12:05:27;16.73;;;3.92;;
65315;SDS011;51920;53.952;10.292;2023-11-19T12:07:59;14.02;;;3.50;;
65315;SDS011;51920;53.952;10.292;2023-11-19T12:10:31;15.77;;;3.37;;
65315;SDS011;51920;53.952;10.292;2023-11-19T12:12:58;16.42;;;3.63;;
65315;SDS011;51920;53.952;10.292;2023-11-19T12:15:30;20.60;;;3.92;;
65315;SDS011;51920;53.952;10.292;2023-11-19T12:17:57;21.25;;;3.95;;
65315;SDS011;51920;53.952;10.292;2023-11-19T12:20:24;23.55;;;4.00;;
65315;SDS011;51920;53.952;10.292;2023-11-19T12:22:55;27.07;;;4.80;;
65315;SDS011;51920;53.952;10.292;2023-11-19T12:25:22;19.52;;;3.50;;
65315;SDS011;51920;53.952;10.292;2023-11-19T12:27:50;16.77;;;3.45;;
65315;SDS011;51920;53.952;10.292;2023-11-19T12:30:21;15.90;;;3.70;;
65315;SDS011;51920;53.952;10.292;2023-11-19T12:32:49;19.55;;;3.70;;
65315;SDS011;51920;53.952;10.292;2023-11-19T12:35:17;17.37;;;3.30;;
65315;SDS011;51920;53.952;10.292;2023-11-19T12:37:44;23.50;;;3.85;;
65315;SDS011;51920;53.952;10.292;2023-11-19T12:42:46;19.77;;;3.50;;
65315;SDS011;51920;53.952;10.292;2023-11-19T12:45:13;20.85;;;3.60;;
65315;SDS011;51920;53.952;10.292;2023-11-19T12:47:40;18.53;;;3.60;;
65315;SDS011;51920;53.952;10.292;2023-11-19T12:50:07;27.27;;;5.47;;
65315;SDS011;51920;53.952;10.292;2023-11-19T12:52:35;20.85;;;3.75;;
65315;SDS011;51920;53.952;10.292;2023-11-19T12:55:03;19.17;;;4.03;;
65315;SDS011;51920;53.952;10.292;2023-11-19T12:57:51;21.20;;;4.05;;
65315;SDS011;51920;53.952;10.292;2023-11-19T13:00:18;17.73;;;3.97;;
65315;SDS011;51920;53.952;10.292;2023-11-19T13:02:54;18.23;;;4.38;;
65315;SDS011;51920;53.952;10.292;2023-11-19T13:07:48;20.25;;;3.47;;
65315;SDS011;51920;53.952;10.292;2023-11-19T13:10:15;23.02;;;3.85;;
65315;SDS011;51920;53.952;10.292;2023-11-19T13:12:43;22.70;;;3.60;;
65315;SDS011;51920;53.952;10.292;2023-11-19T13:15:22;19.05;;;3.75;;
65315;SDS011;51920;53.952;10.292;2023-11-19T13:17:51;21.23;;;3.78;;
65315;SDS011;51920;53.952;10.292;2023-11-19T13:20:22;27.27;;;3.50;;
65315;SDS011;51920;53.952;10.292;2023-11-19T13:23:02;22.00;;;3.53;;
65315;SDS011;51920;53.952;10.292;2023-11-19T13:25:30;22.27;;;3.47;;
65315;SDS011;51920;53.952;10.292;2023-11-19T13:27:58;21.40;;;3.58;;
65315;SDS011;51920;53.952;10.292;2023-11-19T13:30:27;23.92;;;4.13;;
65315;SDS011;51920;53.952;10.292;2023-11-19T13:32:55;22.00;;;3.63;;
65315;SDS011;51920;53.952;10.292;2023-11-19T13:35:22;23.58;;;3.90;;
65315;SDS011;51920;53.952;10.292;2023-11-19T13:37:49;26.57;;;4.53;;
65315;SDS011;51920;53.952;10.292;2023-11-19T13:40:16;21.23;;;3.50;;
65315;SDS011;51920;53.952;10.292;2023-11-19T13:42:43;29.58;;;3.67;;
65315;SDS011;51920;53.952;10.292;2023-11-19T13:45:10;27.15;;;3.88;;
65315;SDS011;51920;53.952;10.292;2023-11-19T13:47:39;21.67;;;3.55;;
65315;SDS011;51920;53.952;10.292;2023-11-19T13:50:11;20.07;;;4.00;;
65315;SDS011;51920;53.952;10.292;2023-11-19T13:52:42;21.15;;;3.60;;
65315;SDS011;51920;53.952;10.292;2023-11-19T13:55:12;16.50;;;3.28;;
65315;SDS011;51920;53.952;10.292;2023-11-19T13:57:39;17.17;;;3.58;;
65315;SDS011;51920;53.952;10.292;2023-11-19T14:00:07;22.25;;;4.15;;
65315;SDS011;51920;53.952;10.292;2023-11-19T14:02:46;17.33;;;3.30;;
65315;SDS011;51920;53.952;10.292;2023-11-19T14:05:16;25.13;;;3.60;;
65315;SDS011;51920;53.952;10.292;2023-11-19T14:08:02;23.52;;;3.72;;
65315;SDS011;51920;53.952;10.292;2023-11-19T14:10:31;22.65;;;3.75;;
65315;SDS011;51920;53.952;10.292;2023-11-19T14:12:58;20.65;;;3.90;;
65315;SDS011;51920;53.952;10.292;2023-11-19T14:15:24;20.43;;;3.80;;
65315;SDS011;51920;53.952;10.292;2023-11-19T14:17:51;23.15;;;4.43;;
65315;SDS011;51920;53.952;10.292;2023-11-19T14:20:18;23.33;;;4.25;;
65315;SDS011;51920;53.952;10.292;2023-11-19T14:22:45;26.88;;;4.10;;
65315;SDS011;51920;53.952;10.292;2023-11-19T14:25:15;18.90;;;3.97;;
65315;SDS011;51920;53.952;10.292;2023-11-19T14:27:42;19.97;;;3.47;;
65315;SDS011;51920;53.952;10.292;2023-11-19T14:30:10;22.20;;;4.70;;
65315;SDS011;51920;53.952;10.292;2023-11-19T14:32:42;20.90;;;4.35;;
65315;SDS011;51920;53.952;10.292;2023-11-19T14:35:13;23.63;;;4.25;;
65315;SDS011;51920;53.952;10.292;2023-11-19T14:37:39;25.90;;;4.25;;
65315;SDS011;51920;53.952;10.292;2023-11-19T14:40:06;24.60;;;3.87;;
65315;SDS011;51920;53.952;10.292;2023-11-19T14:42:36;25.02;;;3.80;;
65315;SDS011;51920;53.952;10.292;2023-11-19T14:45:03;21.35;;;3.58;;
65315;SDS011;51920;53.952;10.292;2023-11-19T14:47:31;18.42;;;3.08;;
65315;SDS011;51920;53.952;10.292;2023-11-19T14:49:57;25.20;;;4.05;;
65315;SDS011;51920;53.952;10.292;2023-11-19T14:52:24;21.00;;;3.73;;
65315;SDS011;51920;53.952;10.292;2023-11-19T14:54:54;23.75;;;3.95;;
65315;SDS011;51920;53.952;10.292;2023-11-19T14:57:22;16.83;;;3.70;;
65315;SDS011;51920;53.952;10.292;2023-11-19T14:59:49;20.05;;;3.13;;